createdAt,value
2023-05-09T00:02:04.538Z,4.80
2023-05-09T00:08:07.584Z,4.77
2023-05-09T00:15:05.074Z,4.70
2023-05-09T00:21:29.060Z,4.62
2023-05-09T00:28:03.408Z,4.54
2023-05-09T00:34:25.194Z,4.46
2023-05-09T00:40:49.142Z,4.41
2023-05-09T00:47:12.989Z,4.41
2023-05-09T00:53:36.907Z,4.41
2023-05-09T00:59:04.073Z,4.36
2023-05-09T01:04:25.057Z,4.30
2023-05-09T01:10:20.290Z,4.30
2023-05-09T01:15:56.426Z,4.31
2023-05-09T01:22:36.256Z,4.28
2023-05-09T01:29:23.800Z,4.21
2023-05-09T01:35:54.977Z,4.14
2023-05-09T01:42:19.608Z,4.02
2023-05-09T01:48:41.878Z,3.97
2023-05-09T01:55:01.134Z,3.98
2023-05-09T02:01:28.619Z,3.98
2023-05-09T02:08:29.511Z,3.87
2023-05-09T02:15:41.532Z,3.62
2023-05-09T02:21:42.298Z,3.49
2023-05-09T02:27:24.009Z,3.48
2023-05-09T02:32:45.992Z,3.50
2023-05-09T02:38:15.173Z,3.49
2023-05-09T02:44:37.019Z,3.43
2023-05-09T02:50:45.351Z,3.32
2023-05-09T02:56:10.442Z,3.25
2023-05-09T03:02:37.037Z,3.23
2023-05-09T03:09:19.695Z,3.26
2023-05-09T03:16:04.760Z,3.30
2023-05-09T03:29:52.819Z,3.30
2023-05-09T03:36:14.370Z,3.29
2023-05-09T03:41:37.238Z,3.30
2023-05-09T03:46:40.620Z,3.25
2023-05-09T03:52:42.428Z,3.24
2023-05-09T03:59:03.788Z,3.34
2023-05-09T04:05:26.166Z,3.50
2023-05-09T04:11:47.583Z,3.67
2023-05-09T04:18:20.767Z,3.86
2023-05-09T04:23:43.909Z,4.07
2023-05-09T04:28:46.438Z,4.24
2023-05-09T04:34:28.394Z,4.44
2023-05-09T04:41:22.106Z,4.73
2023-05-09T04:48:26.754Z,4.99
2023-05-09T04:55:31.632Z,5.29
2023-05-09T05:01:55.559Z,5.62
2023-05-09T05:08:59.225Z,6.11
2023-05-09T05:16:02.997Z,6.53
2023-05-09T05:22:49.913Z,7.12
2023-05-09T05:38:47.832Z,8.81
2023-05-09T05:45:41.152Z,9.36
2023-05-09T05:52:44.822Z,9.89
2023-05-09T05:59:48.660Z,10.40
2023-05-09T06:06:35.935Z,11.20
2023-05-09T06:13:33.058Z,11.61
2023-05-09T06:20:38.264Z,12.34
2023-05-09T06:27:34.060Z,13.08
2023-05-09T06:34:37.445Z,13.87
2023-05-09T06:41:41.092Z,14.02
2023-05-09T06:48:44.817Z,14.81
2023-05-09T06:55:48.624Z,15.48
2023-05-09T07:03:12.978Z,15.70
2023-05-09T07:10:16.487Z,15.70
2023-05-09T07:16:37.589Z,16.02
2023-05-09T07:23:21.559Z,16.30
2023-05-09T07:30:24.012Z,16.76
2023-05-09T07:37:04.070Z,16.87
2023-05-09T07:44:08.041Z,16.95
2023-05-09T07:51:11.731Z,17.41
2023-05-09T07:57:47.720Z,17.25
2023-05-09T08:04:49.934Z,17.54
2023-05-09T08:11:33.051Z,17.50
2023-05-09T08:18:37.123Z,17.64
2023-05-09T08:25:04.085Z,17.43
2023-05-09T08:50:22.096Z,17.33
2023-05-09T08:57:25.852Z,17.07
2023-05-09T09:04:12.169Z,16.74
2023-05-09T09:10:47.253Z,16.74
2023-05-09T09:17:26.765Z,16.91
2023-05-09T09:24:21.811Z,16.54
2023-05-09T09:31:01.434Z,16.80
2023-05-09T09:37:50.256Z,16.98
2023-05-09T09:44:53.982Z,16.64
2023-05-09T09:51:50.382Z,16.98
2023-05-09T09:58:56.645Z,17.71
2023-05-09T10:05:52.920Z,16.82
2023-05-09T10:12:21.676Z,17.47
2023-05-09T10:19:25.014Z,18.62
2023-05-09T10:26:41.478Z,19.28
2023-05-09T10:33:54.127Z,20.04
2023-05-09T10:41:00.531Z,19.95
2023-05-09T10:48:04.133Z,20.08
2023-05-09T10:55:08.192Z,20.17
2023-05-09T11:02:09.518Z,19.34
2023-05-09T11:09:21.711Z,18.48
2023-05-09T11:15:29.602Z,18.61
2023-05-09T11:21:33.298Z,18.78
2023-05-09T11:28:04.953Z,20.19
2023-05-09T11:34:31.281Z,19.84
2023-05-09T11:41:24.605Z,19.65
2023-05-09T11:47:31.438Z,20.81
2023-05-09T11:53:46.824Z,21.37
2023-05-09T12:00:10.969Z,21.65
2023-05-09T12:06:20.468Z,21.88
2023-05-09T12:12:11.990Z,22.25
2023-05-09T12:19:03.387Z,22.80
2023-05-09T12:25:23.310Z,23.20
2023-05-09T12:32:02.429Z,23.24
2023-05-09T12:39:07.282Z,23.50
2023-05-09T12:45:46.851Z,23.06
2023-05-09T12:58:39.042Z,22.74
2023-05-09T13:04:40.405Z,22.97
2023-05-09T13:11:51.406Z,23.76
2023-05-09T13:17:53.418Z,23.51
2023-05-09T13:24:33.890Z,22.00
2023-05-09T13:30:40.746Z,22.41
2023-05-09T13:37:07.398Z,21.13
2023-05-09T13:43:42.896Z,21.96
2023-05-09T13:49:45.954Z,21.87
2023-05-09T13:55:59.087Z,22.07
2023-05-09T14:02:18.972Z,21.34
2023-05-09T14:09:15.521Z,21.52
2023-05-09T14:15:42.698Z,22.53
2023-05-09T14:22:21.403Z,22.74
2023-05-09T14:29:24.673Z,21.67
2023-05-09T14:36:39.778Z,21.48
2023-05-09T14:43:42.801Z,21.61
2023-05-09T14:50:28.080Z,21.96
2023-05-09T14:57:11.628Z,22.40
2023-05-09T15:03:53.125Z,21.72
2023-05-09T15:09:42.312Z,21.89
2023-05-09T15:16:01.098Z,21.43
2023-05-09T15:22:44.556Z,21.07
2023-05-09T15:29:30.013Z,20.46
2023-05-09T15:36:07.905Z,19.57
2023-05-09T15:43:10.538Z,18.87
2023-05-09T15:50:13.247Z,17.96
2023-05-09T15:57:18.327Z,17.53
2023-05-09T16:03:49.057Z,17.20
2023-05-09T16:10:23.736Z,17.00
2023-05-09T16:15:59.875Z,16.80
2023-05-09T16:22:47.436Z,16.44
2023-05-09T16:29:51.439Z,16.16
2023-05-09T16:36:55.056Z,15.98
2023-05-09T16:43:58.774Z,15.85
2023-05-09T16:50:30.048Z,15.75
2023-05-09T16:57:26.167Z,15.61
2023-05-09T17:04:01.347Z,15.40
2023-05-09T17:14:12.130Z,15.27
2023-05-09T17:20:38.622Z,15.07
2023-05-09T17:27:02.703Z,14.88
2023-05-09T17:33:26.267Z,14.68
2023-05-09T17:39:14.797Z,14.50
2023-05-09T17:44:18.660Z,14.35
2023-05-09T17:50:19.736Z,14.20
2023-05-09T17:56:40.860Z,14.04
2023-05-09T18:03:02.029Z,13.87
2023-05-09T18:08:31.195Z,13.72
2023-05-09T18:13:35.524Z,13.55
2023-05-09T18:19:36.778Z,13.39
2023-05-09T18:25:58.068Z,13.22
2023-05-09T18:31:21.894Z,13.03
2023-05-09T18:36:23.591Z,12.87
2023-05-09T18:41:25.855Z,12.73
2023-05-09T18:46:27.390Z,12.61
2023-05-09T18:52:12.660Z,12.49
2023-05-09T18:58:09.872Z,12.33
2023-05-09T19:04:24.627Z,12.20
2023-05-09T19:17:08.661Z,11.93
2023-05-09T19:23:35.277Z,11.80
2023-05-09T19:30:38.273Z,11.68
2023-05-09T19:37:41.091Z,11.55
2023-05-09T19:44:09.048Z,11.47
2023-05-09T19:50:26.165Z,11.39
2023-05-09T19:56:28.837Z,11.31
2023-05-09T20:01:30.785Z,11.29
2023-05-09T20:06:32.256Z,11.28
2023-05-09T20:11:33.700Z,11.30
2023-05-09T20:16:35.788Z,11.31
2023-05-09T20:21:37.337Z,11.31
2023-05-09T20:26:38.786Z,11.31
2023-05-09T20:31:41.123Z,11.30
2023-05-09T20:37:42.456Z,11.27
2023-05-09T20:44:13.671Z,11.24
2023-05-09T20:50:34.614Z,11.20
2023-05-09T20:57:05.614Z,11.16
2023-05-09T21:03:26.643Z,11.11
2023-05-09T21:09:47.719Z,11.06
2023-05-09T21:15:29.189Z,10.99
2023-05-09T21:21:30.275Z,10.94
2023-05-09T21:27:51.277Z,10.89
2023-05-09T21:33:12.512Z,10.81
2023-05-09T21:38:13.790Z,10.75
2023-05-09T21:44:15.488Z,10.67
2023-05-09T21:50:56.572Z,10.57
2023-05-09T21:56:17.799Z,10.48
2023-05-09T22:01:19.571Z,10.41
2023-05-09T22:06:21.142Z,10.35
2023-05-09T22:11:22.632Z,10.29
2023-05-09T22:16:24.028Z,10.23
2023-05-09T22:21:25.572Z,10.16
2023-05-09T22:26:26.753Z,10.08
2023-05-09T22:31:28.229Z,9.95
2023-05-09T22:36:29.509Z,9.80
2023-05-09T22:42:30.570Z,9.66
2023-05-09T22:47:52.063Z,9.45
2023-05-09T22:52:53.574Z,9.30
2023-05-09T22:57:55.012Z,9.20
2023-05-09T23:02:56.406Z,9.13
2023-05-09T23:08:21.495Z,9.07
2023-05-09T23:14:42.253Z,9.00
2023-05-09T23:21:03.449Z,8.89
2023-05-09T23:27:24.498Z,8.78
2023-05-09T23:32:46.068Z,8.69
2023-05-09T23:37:49.493Z,8.63
2023-05-09T23:42:51.305Z,8.58
2023-05-09T23:47:53.731Z,8.49
2023-05-09T23:52:55.158Z,8.42
2023-05-09T23:57:56.443Z,8.32
